sensor_id;sensor_type;location;lat;lon;timestamp;temperature;humidity
44731;DHT22;30458;47.448;19.032;2022-09-03T00:00:36;17.60;97.00
44731;DHT22;30458;47.448;19.032;2022-09-03T00:10:56;17.30;97.20
44731;DHT22;30458;47.448;19.032;2022-09-03T00:21:11;17.20;97.60
44731;DHT22;30458;47.448;19.032;2022-09-03T00:31:36;17.00;97.90
44731;DHT22;30458;47.448;19.032;2022-09-03T01:02:34;17.00;97.70
44731;DHT22;30458;47.448;19.032;2022-09-03T01:23:57;16.80;97.90
44731;DHT22;30458;47.448;19.032;2022-09-03T02:05:18;16.40;98.60
44731;DHT22;30458;47.448;19.032;2022-09-03T02:15:23;15.90;99.20
44731;DHT22;30458;47.448;19.032;2022-09-03T02:25:31;15.80;99.60
44731;DHT22;30458;47.448;19.032;2022-09-03T02:35:35;15.80;99.80
44731;DHT22;30458;47.448;19.032;2022-09-03T02:45:36;15.90;99.40
44731;DHT22;30458;47.448;19.032;2022-09-03T02:55:44;16.00;99.10
44731;DHT22;30458;47.448;19.032;2022-09-03T03:05:50;16.00;99.10
44731;DHT22;30458;47.448;19.032;2022-09-03T03:15:59;15.80;99.50
44731;DHT22;30458;47.448;19.032;2022-09-03T03:26:05;15.50;99.90
44731;DHT22;30458;47.448;19.032;2022-09-03T03:36:09;15.40;99.90
44731;DHT22;30458;47.448;19.032;2022-09-03T03:46:10;15.30;99.90
44731;DHT22;30458;47.448;19.032;2022-09-03T03:56:13;15.40;99.90
44731;DHT22;30458;47.448;19.032;2022-09-03T04:06:18;15.30;99.90
44731;DHT22;30458;47.448;19.032;2022-09-03T04:16:23;15.20;99.90
44731;DHT22;30458;47.448;19.032;2022-09-03T04:26:29;15.20;99.90
44731;DHT22;30458;47.448;19.032;2022-09-03T04:36:31;15.20;99.90
44731;DHT22;30458;47.448;19.032;2022-09-03T04:46:35;15.00;99.90
44731;DHT22;30458;47.448;19.032;2022-09-03T04:56:42;15.70;99.90
44731;DHT22;30458;47.448;19.032;2022-09-03T05:06:42;16.80;98.50
44731;DHT22;30458;47.448;19.032;2022-09-03T05:16:44;17.70;97.20
44731;DHT22;30458;47.448;19.032;2022-09-03T05:26:47;19.20;95.00
44731;DHT22;30458;47.448;19.032;2022-09-03T05:36:48;20.30;93.80
44731;DHT22;30458;47.448;19.032;2022-09-03T05:46:49;21.60;92.40
44731;DHT22;30458;47.448;19.032;2022-09-03T05:56:53;22.60;91.20
44731;DHT22;30458;47.448;19.032;2022-09-03T06:06:56;23.40;90.10
44731;DHT22;30458;47.448;19.032;2022-09-03T06:16:57;24.00;89.50
44731;DHT22;30458;47.448;19.032;2022-09-03T06:26:58;25.00;87.60
44731;DHT22;30458;47.448;19.032;2022-09-03T06:36:59;25.80;85.40
44731;DHT22;30458;47.448;19.032;2022-09-03T06:46:59;26.70;83.50
44731;DHT22;30458;47.448;19.032;2022-09-03T06:57:03;26.90;81.90
44731;DHT22;30458;47.448;19.032;2022-09-03T07:07:04;28.10;79.30
44731;DHT22;30458;47.448;19.032;2022-09-03T07:17:05;28.90;77.70
44731;DHT22;30458;47.448;19.032;2022-09-03T07:27:06;29.30;76.80
44731;DHT22;30458;47.448;19.032;2022-09-03T07:37:07;30.60;73.90
44731;DHT22;30458;47.448;19.032;2022-09-03T07:47:08;30.10;72.90
44731;DHT22;30458;47.448;19.032;2022-09-03T07:57:09;28.90;75.00
44731;DHT22;30458;47.448;19.032;2022-09-03T08:07:10;28.80;74.50
44731;DHT22;30458;47.448;19.032;2022-09-03T08:17:10;28.60;72.90
44731;DHT22;30458;47.448;19.032;2022-09-03T08:27:18;26.40;75.80
44731;DHT22;30458;47.448;19.032;2022-09-03T08:37:25;27.30;74.10
44731;DHT22;30458;47.448;19.032;2022-09-03T08:47:40;27.00;76.60
44731;DHT22;30458;47.448;19.032;2022-09-03T08:57:55;26.30;78.10
44731;DHT22;30458;47.448;19.032;2022-09-03T09:08:29;25.90;76.90
44731;DHT22;30458;47.448;19.032;2022-09-03T09:29:07;25.00;82.70
44731;DHT22;30458;47.448;19.032;2022-09-03T09:39:11;24.40;82.50
44731;DHT22;30458;47.448;19.032;2022-09-03T09:49:29;23.90;84.70
44731;DHT22;30458;47.448;19.032;2022-09-03T09:59:32;23.80;81.70
44731;DHT22;30458;47.448;19.032;2022-09-03T10:09:35;23.70;84.00
44731;DHT22;30458;47.448;19.032;2022-09-03T10:20:09;23.20;83.40
44731;DHT22;30458;47.448;19.032;2022-09-03T10:30:29;23.30;85.70
44731;DHT22;30458;47.448;19.032;2022-09-03T10:50:59;23.70;83.50
44731;DHT22;30458;47.448;19.032;2022-09-03T11:11:30;23.70;81.50
44731;DHT22;30458;47.448;19.032;2022-09-03T11:21:34;23.60;81.30
44731;DHT22;30458;47.448;19.032;2022-09-03T11:42:02;23.30;79.40
44731;DHT22;30458;47.448;19.032;2022-09-03T11:52:06;23.40;80.60
44731;DHT22;30458;47.448;19.032;2022-09-03T12:02:28;23.80;74.80
44731;DHT22;30458;47.448;19.032;2022-09-03T12:22:41;23.90;76.00
44731;DHT22;30458;47.448;19.032;2022-09-03T12:32:42;24.10;77.00
44731;DHT22;30458;47.448;19.032;2022-09-03T12:42:44;23.90;76.30
44731;DHT22;30458;47.448;19.032;2022-09-03T12:52:57;24.00;77.80
44731;DHT22;30458;47.448;19.032;2022-09-03T13:03:06;24.00;78.00
44731;DHT22;30458;47.448;19.032;2022-09-03T13:33:46;24.30;77.70
44731;DHT22;30458;47.448;19.032;2022-09-03T13:44:09;24.50;76.30
44731;DHT22;30458;47.448;19.032;2022-09-03T14:04:39;24.40;74.80
44731;DHT22;30458;47.448;19.032;2022-09-03T14:14:53;24.60;74.90
44731;DHT22;30458;47.448;19.032;2022-09-03T14:25:02;24.60;75.00
44731;DHT22;30458;47.448;19.032;2022-09-03T15:06:06;24.60;75.60
44731;DHT22;30458;47.448;19.032;2022-09-03T15:36:49;24.20;76.00
44731;DHT22;30458;47.448;19.032;2022-09-03T15:47:02;23.90;76.00
44731;DHT22;30458;47.448;19.032;2022-09-03T15:57:20;24.00;76.20
44731;DHT22;30458;47.448;19.032;2022-09-03T16:28:34;24.00;77.00
44731;DHT22;30458;47.448;19.032;2022-09-03T16:58:51;23.70;79.40
44731;DHT22;30458;47.448;19.032;2022-09-03T17:09:14;23.60;79.60
44731;DHT22;30458;47.448;19.032;2022-09-03T17:19:38;23.60;80.00
44731;DHT22;30458;47.448;19.032;2022-09-03T18:00:25;22.90;82.30
44731;DHT22;30458;47.448;19.032;2022-09-03T18:20:54;22.30;85.20
44731;DHT22;30458;47.448;19.032;2022-09-03T18:31:15;22.20;88.00
44731;DHT22;30458;47.448;19.032;2022-09-03T18:41:53;22.20;89.10
44731;DHT22;30458;47.448;19.032;2022-09-03T18:52:50;22.00;89.60
44731;DHT22;30458;47.448;19.032;2022-09-03T19:03:28;21.90;90.10
44731;DHT22;30458;47.448;19.032;2022-09-03T19:13:50;21.60;90.40
44731;DHT22;30458;47.448;19.032;2022-09-03T19:24:09;21.50;90.70
44731;DHT22;30458;47.448;19.032;2022-09-03T19:55:36;21.00;91.20
44731;DHT22;30458;47.448;19.032;2022-09-03T20:06:04;21.00;91.70
44731;DHT22;30458;47.448;19.032;2022-09-03T20:48:04;20.50;93.10
44731;DHT22;30458;47.448;19.032;2022-09-03T21:29:20;19.90;94.00
44731;DHT22;30458;47.448;19.032;2022-09-03T21:39:27;19.70;94.50
44731;DHT22;30458;47.448;19.032;2022-09-03T21:49:36;19.70;94.50
44731;DHT22;30458;47.448;19.032;2022-09-03T22:10:17;19.40;95.20
44731;DHT22;30458;47.448;19.032;2022-09-03T22:20:23;19.30;95.50
44731;DHT22;30458;47.448;19.032;2022-09-03T22:30:32;19.30;95.70
44731;DHT22;30458;47.448;19.032;2022-09-03T22:40:38;19.20;96.00
44731;DHT22;30458;47.448;19.032;2022-09-03T22:50:59;19.20;96.00
44731;DHT22;30458;47.448;19.032;2022-09-03T23:01:08;19.10;96.20
44731;DHT22;30458;47.448;19.032;2022-09-03T23:11:24;19.20;96.50
44731;DHT22;30458;47.448;19.032;2022-09-03T23:21:38;19.20;96.60
44731;DHT22;30458;47.448;19.032;2022-09-03T23:31:43;19.00;96.70
44731;DHT22;30458;47.448;19.032;2022-09-03T23:52:22;18.80;96.90
